sensor_id;sensor_type;location;lat;lon;timestamp;P1;durP1;ratioP1;P2;durP2;ratioP2
56401;SDS011;42299;35.160;26.100;2022-11-04T00:01:05;7.82;;;4.20;;
56401;SDS011;42299;35.160;26.100;2022-11-04T00:02:26;12.65;;;5.15;;
56401;SDS011;42299;35.160;26.100;2022-11-04T00:03:49;9.00;;;5.00;;
56401;SDS011;42299;35.160;26.100;2022-11-04T00:05:11;8.52;;;4.47;;
56401;SDS011;42299;35.160;26.100;2022-11-04T00:06:34;13.68;;;4.88;;
56401;SDS011;42299;35.160;26.100;2022-11-04T00:07:55;9.15;;;5.05;;
56401;SDS011;42299;35.160;26.100;2022-11-04T00:09:35;11.13;;;4.80;;
56401;SDS011;42299;35.160;26.100;2022-11-04T00:10:58;8.88;;;4.38;;
56401;SDS011;42299;35.160;26.100;2022-11-04T00:12:40;8.30;;;3.90;;
56401;SDS011;42299;35.160;26.100;2022-11-04T00:14:01;11.70;;;5.07;;
56401;SDS011;42299;35.160;26.100;2022-11-04T00:15:24;8.25;;;3.90;;
56401;SDS011;42299;35.160;26.100;2022-11-04T00:17:03;6.93;;;3.60;;
56401;SDS011;42299;35.160;26.100;2022-11-04T00:18:42;8.20;;;3.65;;
56401;SDS011;42299;35.160;26.100;2022-11-04T00:20:04;9.13;;;3.65;;
56401;SDS011;42299;35.160;26.100;2022-11-04T00:21:45;9.50;;;4.70;;
56401;SDS011;42299;35.160;26.100;2022-11-04T00:23:24;7.53;;;3.95;;
56401;SDS011;42299;35.160;26.100;2022-11-04T00:25:04;11.43;;;4.82;;
56401;SDS011;42299;35.160;26.100;2022-11-04T00:26:44;10.00;;;4.32;;
56401;SDS011;42299;35.160;26.100;2022-11-04T00:28:26;7.45;;;4.15;;
56401;SDS011;42299;35.160;26.100;2022-11-04T00:30:05;7.45;;;4.00;;
56401;SDS011;42299;35.160;26.100;2022-11-04T00:31:29;6.97;;;3.83;;
56401;SDS011;42299;35.160;26.100;2022-11-04T00:33:08;10.10;;;3.80;;
56401;SDS011;42299;35.160;26.100;2022-11-04T00:34:45;8.88;;;3.90;;
56401;SDS011;42299;35.160;26.100;2022-11-04T00:36:07;8.13;;;3.50;;
56401;SDS011;42299;35.160;26.100;2022-11-04T00:37:30;6.10;;;3.35;;
56401;SDS011;42299;35.160;26.100;2022-11-04T00:38:52;7.50;;;3.75;;
56401;SDS011;42299;35.160;26.100;2022-11-04T00:40:14;10.90;;;3.85;;
56401;SDS011;42299;35.160;26.100;2022-11-04T00:41:37;6.40;;;3.28;;
56401;SDS011;42299;35.160;26.100;2022-11-04T00:42:59;6.47;;;3.63;;
56401;SDS011;42299;35.160;26.100;2022-11-04T00:44:22;9.60;;;4.03;;
56401;SDS011;42299;35.160;26.100;2022-11-04T00:45:44;5.95;;;3.05;;
56401;SDS011;42299;35.160;26.100;2022-11-04T00:47:06;6.90;;;3.78;;
56401;SDS011;42299;35.160;26.100;2022-11-04T00:48:28;9.05;;;3.90;;
56401;SDS011;42299;35.160;26.100;2022-11-04T00:49:51;9.35;;;4.00;;
56401;SDS011;42299;35.160;26.100;2022-11-04T00:51:13;7.00;;;3.60;;
56401;SDS011;42299;35.160;26.100;2022-11-04T00:52:36;8.25;;;3.83;;
56401;SDS011;42299;35.160;26.100;2022-11-04T00:53:57;10.25;;;4.60;;
56401;SDS011;42299;35.160;26.100;2022-11-04T00:55:19;8.88;;;4.05;;
56401;SDS011;42299;35.160;26.100;2022-11-04T00:56:42;8.13;;;4.13;;
56401;SDS011;42299;35.160;26.100;2022-11-04T00:58:03;8.75;;;4.45;;
56401;SDS011;42299;35.160;26.100;2022-11-04T00:59:27;6.95;;;4.15;;
56401;SDS011;42299;35.160;26.100;2022-11-04T01:00:49;9.98;;;4.32;;
56401;SDS011;42299;35.160;26.100;2022-11-04T01:02:11;8.50;;;3.80;;
56401;SDS011;42299;35.160;26.100;2022-11-04T01:03:33;7.05;;;4.30;;
56401;SDS011;42299;35.160;26.100;2022-11-04T01:04:55;9.27;;;4.70;;
56401;SDS011;42299;35.160;26.100;2022-11-04T01:06:19;10.02;;;4.50;;
56401;SDS011;42299;35.160;26.100;2022-11-04T01:07:42;8.50;;;4.00;;
56401;SDS011;42299;35.160;26.100;2022-11-04T01:09:05;11.02;;;4.05;;
56401;SDS011;42299;35.160;26.100;2022-11-04T01:10:29;8.23;;;4.15;;
56401;SDS011;42299;35.160;26.100;2022-11-04T01:11:51;7.10;;;3.53;;
56401;SDS011;42299;35.160;26.100;2022-11-04T01:13:13;8.10;;;4.05;;
56401;SDS011;42299;35.160;26.100;2022-11-04T01:14:37;9.48;;;4.30;;
56401;SDS011;42299;35.160;26.100;2022-11-04T01:15:58;9.20;;;4.20;;
56401;SDS011;42299;35.160;26.100;2022-11-04T01:17:20;7.80;;;4.00;;
56401;SDS011;42299;35.160;26.100;2022-11-04T01:18:43;8.15;;;4.07;;
56401;SDS011;42299;35.160;26.100;2022-11-04T01:20:06;8.52;;;4.63;;
56401;SDS011;42299;35.160;26.100;2022-11-04T01:21:29;6.80;;;3.35;;
56401;SDS011;42299;35.160;26.100;2022-11-04T01:22:51;7.45;;;4.10;;
56401;SDS011;42299;35.160;26.100;2022-11-04T01:24:14;6.80;;;3.88;;
56401;SDS011;42299;35.160;26.100;2022-11-04T01:25:38;9.20;;;3.88;;
56401;SDS011;42299;35.160;26.100;2022-11-04T01:27:00;7.55;;;3.83;;
56401;SDS011;42299;35.160;26.100;2022-11-04T01:28:23;8.15;;;3.63;;
56401;SDS011;42299;35.160;26.100;2022-11-04T01:29:46;9.23;;;3.90;;
56401;SDS011;42299;35.160;26.100;2022-11-04T01:31:08;7.38;;;3.90;;
56401;SDS011;42299;35.160;26.100;2022-11-04T01:32:31;8.70;;;3.70;;
56401;SDS011;42299;35.160;26.100;2022-11-04T01:33:53;7.40;;;3.40;;
56401;SDS011;42299;35.160;26.100;2022-11-04T01:35:15;6.63;;;3.30;;
56401;SDS011;42299;35.160;26.100;2022-11-04T01:36:37;9.05;;;3.35;;
56401;SDS011;42299;35.160;26.100;2022-11-04T01:37:59;11.02;;;4.10;;
56401;SDS011;42299;35.160;26.100;2022-11-04T01:39:21;7.28;;;3.65;;
56401;SDS011;42299;35.160;26.100;2022-11-04T01:40:44;7.78;;;2.88;;
56401;SDS011;42299;35.160;26.100;2022-11-04T01:42:05;7.22;;;3.60;;
56401;SDS011;42299;35.160;26.100;2022-11-04T01:43:41;7.00;;;3.90;;
56401;SDS011;42299;35.160;26.100;2022-11-04T01:45:09;6.20;;;3.20;;
56401;SDS011;42299;35.160;26.100;2022-11-04T01:46:35;9.27;;;3.83;;
56401;SDS011;42299;35.160;26.100;2022-11-04T01:48:02;10.52;;;3.80;;
56401;SDS011;42299;35.160;26.100;2022-11-04T01:49:28;7.80;;;3.67;;
56401;SDS011;42299;35.160;26.100;2022-11-04T01:50:53;7.72;;;3.13;;
56401;SDS011;42299;35.160;26.100;2022-11-04T01:52:17;7.45;;;3.40;;
56401;SDS011;42299;35.160;26.100;2022-11-04T01:53:46;6.25;;;3.30;;
56401;SDS011;42299;35.160;26.100;2022-11-04T01:55:13;6.63;;;3.35;;
56401;SDS011;42299;35.160;26.100;2022-11-04T01:56:40;5.45;;;3.05;;
56401;SDS011;42299;35.160;26.100;2022-11-04T01:58:03;5.25;;;3.03;;
56401;SDS011;42299;35.160;26.100;2022-11-04T01:59:31;6.38;;;3.17;;
56401;SDS011;42299;35.160;26.100;2022-11-04T02:00:56;9.70;;;3.00;;
56401;SDS011;42299;35.160;26.100;2022-11-04T02:02:18;5.57;;;2.80;;
56401;SDS011;42299;35.160;26.100;2022-11-04T02:03:43;7.82;;;4.05;;
56401;SDS011;42299;35.160;26.100;2022-11-04T02:05:09;7.47;;;3.30;;
56401;SDS011;42299;35.160;26.100;2022-11-04T02:06:31;7.07;;;3.42;;
56401;SDS011;42299;35.160;26.100;2022-11-04T02:07:54;8.27;;;3.47;;
56401;SDS011;42299;35.160;26.100;2022-11-04T02:09:18;5.60;;;3.00;;
56401;SDS011;42299;35.160;26.100;2022-11-04T02:10:40;7.25;;;3.60;;
56401;SDS011;42299;35.160;26.100;2022-11-04T02:12:09;9.27;;;3.88;;
56401;SDS011;42299;35.160;26.100;2022-11-04T02:13:49;6.95;;;3.72;;
56401;SDS011;42299;35.160;26.100;2022-11-04T02:15:10;14.45;;;5.85;;
56401;SDS011;42299;35.160;26.100;2022-11-04T02:16:35;12.70;;;5.03;;
56401;SDS011;42299;35.160;26.100;2022-11-04T02:18:05;11.48;;;5.07;;
56401;SDS011;42299;35.160;26.100;2022-11-04T02:20:07;8.25;;;4.18;;
56401;SDS011;42299;35.160;26.100;2022-11-04T02:22:04;7.53;;;4.00;;
56401;SDS011;42299;35.160;26.100;2022-11-04T02:24:08;9.07;;;4.05;;
56401;SDS011;42299;35.160;26.100;2022-11-04T02:27:42;6.72;;;3.60;;
56401;SDS011;42299;35.160;26.100;2022-11-04T02:29:25;6.97;;;3.78;;
56401;SDS011;42299;35.160;26.100;2022-11-04T02:30:54;7.72;;;3.60;;
56401;SDS011;42299;35.160;26.100;2022-11-04T02:32:26;7.47;;;3.50;;
56401;SDS011;42299;35.160;26.100;2022-11-04T02:34:00;7.55;;;3.53;;
56401;SDS011;42299;35.160;26.100;2022-11-04T02:35:29;7.45;;;3.85;;
56401;SDS011;42299;35.160;26.100;2022-11-04T02:37:05;8.07;;;3.90;;
56401;SDS011;42299;35.160;26.100;2022-11-04T02:38:35;5.40;;;3.35;;
56401;SDS011;42299;35.160;26.100;2022-11-04T02:40:07;8.02;;;3.42;;
56401;SDS011;42299;35.160;26.100;2022-11-04T02:41:43;7.57;;;3.85;;
56401;SDS011;42299;35.160;26.100;2022-11-04T02:43:11;8.00;;;3.95;;
56401;SDS011;42299;35.160;26.100;2022-11-04T02:44:44;6.88;;;3.65;;
56401;SDS011;42299;35.160;26.100;2022-11-04T02:46:09;5.47;;;3.42;;
56401;SDS011;42299;35.160;26.100;2022-11-04T02:47:40;6.30;;;3.30;;
56401;SDS011;42299;35.160;26.100;2022-11-04T02:49:07;10.00;;;4.25;;
56401;SDS011;42299;35.160;26.100;2022-11-04T02:50:35;8.23;;;4.28;;
56401;SDS011;42299;35.160;26.100;2022-11-04T02:52:02;7.00;;;3.83;;
56401;SDS011;42299;35.160;26.100;2022-11-04T02:53:28;7.65;;;3.83;;
56401;SDS011;42299;35.160;26.100;2022-11-04T02:54:58;9.55;;;4.05;;
56401;SDS011;42299;35.160;26.100;2022-11-04T02:56:22;6.95;;;3.70;;
56401;SDS011;42299;35.160;26.100;2022-11-04T02:57:47;7.90;;;3.67;;
56401;SDS011;42299;35.160;26.100;2022-11-04T02:59:14;5.65;;;3.13;;
56401;SDS011;42299;35.160;26.100;2022-11-04T03:00:42;7.50;;;3.42;;
56401;SDS011;42299;35.160;26.100;2022-11-04T03:02:06;6.88;;;3.58;;
56401;SDS011;42299;35.160;26.100;2022-11-04T03:03:32;5.25;;;3.35;;
56401;SDS011;42299;35.160;26.100;2022-11-04T03:04:59;7.82;;;2.95;;
56401;SDS011;42299;35.160;26.100;2022-11-04T03:06:24;6.15;;;3.63;;
56401;SDS011;42299;35.160;26.100;2022-11-04T03:07:50;8.98;;;3.75;;
56401;SDS011;42299;35.160;26.100;2022-11-04T03:09:14;6.70;;;3.30;;
56401;SDS011;42299;35.160;26.100;2022-11-04T03:10:40;6.88;;;3.15;;
56401;SDS011;42299;35.160;26.100;2022-11-04T03:12:04;6.60;;;3.50;;
56401;SDS011;42299;35.160;26.100;2022-11-04T03:13:31;7.40;;;4.30;;
56401;SDS011;42299;35.160;26.100;2022-11-04T03:14:59;7.63;;;3.67;;
56401;SDS011;42299;35.160;26.100;2022-11-04T03:16:27;8.02;;;3.70;;
56401;SDS011;42299;35.160;26.100;2022-11-04T03:17:57;8.52;;;3.53;;
56401;SDS011;42299;35.160;26.100;2022-11-04T03:19:25;7.38;;;3.50;;
56401;SDS011;42299;35.160;26.100;2022-11-04T03:20:50;9.73;;;3.70;;
56401;SDS011;42299;35.160;26.100;2022-11-04T03:22:17;6.85;;;3.20;;
56401;SDS011;42299;35.160;26.100;2022-11-04T03:23:42;7.30;;;3.25;;
56401;SDS011;42299;35.160;26.100;2022-11-04T03:25:05;6.20;;;3.25;;
56401;SDS011;42299;35.160;26.100;2022-11-04T03:26:30;6.40;;;3.25;;
56401;SDS011;42299;35.160;26.100;2022-11-04T03:28:00;7.75;;;3.58;;
56401;SDS011;42299;35.160;26.100;2022-11-04T03:29:26;6.22;;;2.88;;
56401;SDS011;42299;35.160;26.100;2022-11-04T03:30:52;7.70;;;3.13;;
56401;SDS011;42299;35.160;26.100;2022-11-04T03:32:20;6.05;;;2.88;;
56401;SDS011;42299;35.160;26.100;2022-11-04T03:33:46;7.78;;;3.90;;
56401;SDS011;42299;35.160;26.100;2022-11-04T03:35:11;5.47;;;2.97;;
56401;SDS011;42299;35.160;26.100;2022-11-04T03:36:34;7.75;;;3.95;;
56401;SDS011;42299;35.160;26.100;2022-11-04T03:37:56;8.20;;;3.95;;
56401;SDS011;42299;35.160;26.100;2022-11-04T03:39:18;7.30;;;3.42;;
56401;SDS011;42299;35.160;26.100;2022-11-04T03:40:40;9.57;;;3.50;;
56401;SDS011;42299;35.160;26.100;2022-11-04T03:42:04;6.47;;;3.40;;
56401;SDS011;42299;35.160;26.100;2022-11-04T03:43:39;7.57;;;3.83;;
56401;SDS011;42299;35.160;26.100;2022-11-04T03:45:03;10.02;;;5.53;;
56401;SDS011;42299;35.160;26.100;2022-11-04T03:46:26;9.60;;;5.80;;
56401;SDS011;42299;35.160;26.100;2022-11-04T03:47:50;13.48;;;6.55;;
56401;SDS011;42299;35.160;26.100;2022-11-04T03:49:12;13.25;;;8.07;;
56401;SDS011;42299;35.160;26.100;2022-11-04T03:50:38;12.05;;;8.00;;
56401;SDS011;42299;35.160;26.100;2022-11-04T03:52:01;8.80;;;5.25;;
56401;SDS011;42299;35.160;26.100;2022-11-04T03:53:23;14.32;;;8.65;;
56401;SDS011;42299;35.160;26.100;2022-11-04T03:54:47;12.15;;;7.65;;
56401;SDS011;42299;35.160;26.100;2022-11-04T03:56:18;10.70;;;7.40;;
56401;SDS011;42299;35.160;26.100;2022-11-04T03:57:50;10.18;;;6.75;;
56401;SDS011;42299;35.160;26.100;2022-11-04T03:59:23;8.90;;;5.03;;
56401;SDS011;42299;35.160;26.100;2022-11-04T04:01:02;9.82;;;7.03;;
56401;SDS011;42299;35.160;26.100;2022-11-04T04:02:45;9.82;;;6.60;;
56401;SDS011;42299;35.160;26.100;2022-11-04T04:04:18;10.95;;;7.32;;
56401;SDS011;42299;35.160;26.100;2022-11-04T04:05:48;10.60;;;6.95;;
56401;SDS011;42299;35.160;26.100;2022-11-04T04:07:15;11.75;;;8.10;;
56401;SDS011;42299;35.160;26.100;2022-11-04T04:08:41;12.63;;;7.47;;
56401;SDS011;42299;35.160;26.100;2022-11-04T04:10:09;11.27;;;7.03;;
56401;SDS011;42299;35.160;26.100;2022-11-04T04:11:50;8.55;;;5.63;;
56401;SDS011;42299;35.160;26.100;2022-11-04T04:13:21;9.90;;;6.10;;
56401;SDS011;42299;35.160;26.100;2022-11-04T04:14:53;8.68;;;6.22;;
56401;SDS011;42299;35.160;26.100;2022-11-04T04:16:19;12.23;;;6.78;;
56401;SDS011;42299;35.160;26.100;2022-11-04T04:17:48;11.30;;;6.25;;
56401;SDS011;42299;35.160;26.100;2022-11-04T04:19:15;10.60;;;6.72;;
56401;SDS011;42299;35.160;26.100;2022-11-04T04:20:43;10.27;;;6.55;;
56401;SDS011;42299;35.160;26.100;2022-11-04T04:22:09;10.70;;;6.68;;
56401;SDS011;42299;35.160;26.100;2022-11-04T04:23:36;9.00;;;6.55;;
56401;SDS011;42299;35.160;26.100;2022-11-04T04:25:18;10.30;;;6.60;;
56401;SDS011;42299;35.160;26.100;2022-11-04T04:27:01;11.65;;;6.28;;
56401;SDS011;42299;35.160;26.100;2022-11-04T04:28:42;9.80;;;5.75;;
56401;SDS011;42299;35.160;26.100;2022-11-04T04:30:08;11.73;;;5.97;;
56401;SDS011;42299;35.160;26.100;2022-11-04T04:31:32;9.07;;;5.65;;
56401;SDS011;42299;35.160;26.100;2022-11-04T04:33:11;8.25;;;5.30;;
56401;SDS011;42299;35.160;26.100;2022-11-04T04:34:36;10.77;;;6.15;;
56401;SDS011;42299;35.160;26.100;2022-11-04T04:35:57;12.30;;;5.70;;
56401;SDS011;42299;35.160;26.100;2022-11-04T04:37:21;9.27;;;6.40;;
56401;SDS011;42299;35.160;26.100;2022-11-04T04:38:46;12.70;;;8.95;;
56401;SDS011;42299;35.160;26.100;2022-11-04T04:40:26;12.27;;;9.38;;
56401;SDS011;42299;35.160;26.100;2022-11-04T04:42:08;12.70;;;9.20;;
56401;SDS011;42299;35.160;26.100;2022-11-04T04:43:48;14.05;;;9.65;;
56401;SDS011;42299;35.160;26.100;2022-11-04T04:45:29;15.52;;;10.13;;
56401;SDS011;42299;35.160;26.100;2022-11-04T04:46:54;13.18;;;10.57;;
56401;SDS011;42299;35.160;26.100;2022-11-04T04:48:19;11.20;;;8.68;;
56401;SDS011;42299;35.160;26.100;2022-11-04T04:49:48;15.10;;;8.65;;
56401;SDS011;42299;35.160;26.100;2022-11-04T04:51:09;12.18;;;8.60;;
56401;SDS011;42299;35.160;26.100;2022-11-04T04:52:32;13.98;;;9.43;;
56401;SDS011;42299;35.160;26.100;2022-11-04T04:53:57;12.48;;;8.98;;
56401;SDS011;42299;35.160;26.100;2022-11-04T04:55:20;12.38;;;8.90;;
56401;SDS011;42299;35.160;26.100;2022-11-04T04:56:43;12.52;;;8.50;;
56401;SDS011;42299;35.160;26.100;2022-11-04T04:58:04;11.85;;;8.13;;
56401;SDS011;42299;35.160;26.100;2022-11-04T04:59:27;13.88;;;8.88;;
56401;SDS011;42299;35.160;26.100;2022-11-04T05:00:48;12.63;;;9.43;;
56401;SDS011;42299;35.160;26.100;2022-11-04T05:02:11;14.35;;;9.68;;
56401;SDS011;42299;35.160;26.100;2022-11-04T05:03:34;13.95;;;12.20;;
56401;SDS011;42299;35.160;26.100;2022-11-04T05:04:57;19.13;;;14.85;;
56401;SDS011;42299;35.160;26.100;2022-11-04T05:06:19;22.73;;;20.23;;
56401;SDS011;42299;35.160;26.100;2022-11-04T05:07:40;21.30;;;18.77;;
56401;SDS011;42299;35.160;26.100;2022-11-04T05:09:04;17.65;;;14.18;;
56401;SDS011;42299;35.160;26.100;2022-11-04T05:10:25;22.02;;;14.13;;
56401;SDS011;42299;35.160;26.100;2022-11-04T05:11:47;13.60;;;9.00;;
56401;SDS011;42299;35.160;26.100;2022-11-04T05:13:09;13.50;;;10.25;;
56401;SDS011;42299;35.160;26.100;2022-11-04T05:14:49;13.70;;;10.00;;
56401;SDS011;42299;35.160;26.100;2022-11-04T05:16:11;14.10;;;9.50;;
56401;SDS011;42299;35.160;26.100;2022-11-04T05:17:34;14.05;;;9.90;;
56401;SDS011;42299;35.160;26.100;2022-11-04T05:18:56;15.40;;;10.07;;
56401;SDS011;42299;35.160;26.100;2022-11-04T05:20:19;11.38;;;8.52;;
56401;SDS011;42299;35.160;26.100;2022-11-04T05:21:41;11.98;;;8.65;;
56401;SDS011;42299;35.160;26.100;2022-11-04T05:23:04;11.80;;;8.48;;
56401;SDS011;42299;35.160;26.100;2022-11-04T05:24:26;11.15;;;8.75;;
56401;SDS011;42299;35.160;26.100;2022-11-04T05:25:48;13.60;;;9.35;;
56401;SDS011;42299;35.160;26.100;2022-11-04T05:27:11;14.73;;;9.57;;
56401;SDS011;42299;35.160;26.100;2022-11-04T05:28:33;14.13;;;8.25;;
56401;SDS011;42299;35.160;26.100;2022-11-04T05:29:56;12.82;;;10.10;;
56401;SDS011;42299;35.160;26.100;2022-11-04T05:31:18;10.23;;;6.97;;
56401;SDS011;42299;35.160;26.100;2022-11-04T05:32:41;10.43;;;7.70;;
56401;SDS011;42299;35.160;26.100;2022-11-04T05:34:04;14.45;;;8.55;;
56401;SDS011;42299;35.160;26.100;2022-11-04T05:35:26;13.20;;;8.27;;
56401;SDS011;42299;35.160;26.100;2022-11-04T05:36:49;10.98;;;7.05;;
56401;SDS011;42299;35.160;26.100;2022-11-04T05:38:12;11.32;;;7.43;;
56401;SDS011;42299;35.160;26.100;2022-11-04T05:39:33;13.55;;;6.25;;
56401;SDS011;42299;35.160;26.100;2022-11-04T05:40:56;18.13;;;6.22;;
56401;SDS011;42299;35.160;26.100;2022-11-04T05:42:17;20.40;;;6.10;;
56401;SDS011;42299;35.160;26.100;2022-11-04T05:43:40;20.92;;;5.53;;
56401;SDS011;42299;35.160;26.100;2022-11-04T05:45:01;16.27;;;4.90;;
56401;SDS011;42299;35.160;26.100;2022-11-04T05:46:24;26.73;;;5.68;;
56401;SDS011;42299;35.160;26.100;2022-11-04T05:47:46;21.33;;;5.28;;
56401;SDS011;42299;35.160;26.100;2022-11-04T05:49:10;14.73;;;4.97;;
56401;SDS011;42299;35.160;26.100;2022-11-04T05:50:33;8.27;;;4.28;;
56401;SDS011;42299;35.160;26.100;2022-11-04T05:51:55;11.75;;;5.10;;
56401;SDS011;42299;35.160;26.100;2022-11-04T05:53:16;10.63;;;4.85;;
56401;SDS011;42299;35.160;26.100;2022-11-04T05:54:40;11.05;;;4.30;;
56401;SDS011;42299;35.160;26.100;2022-11-04T05:56:02;14.52;;;7.45;;
56401;SDS011;42299;35.160;26.100;2022-11-04T05:57:24;13.68;;;7.00;;
56401;SDS011;42299;35.160;26.100;2022-11-04T05:58:46;11.43;;;5.13;;
56401;SDS011;42299;35.160;26.100;2022-11-04T06:00:11;9.88;;;4.03;;
56401;SDS011;42299;35.160;26.100;2022-11-04T06:01:35;6.07;;;3.17;;
56401;SDS011;42299;35.160;26.100;2022-11-04T06:02:58;5.72;;;3.33;;
56401;SDS011;42299;35.160;26.100;2022-11-04T06:04:23;6.97;;;3.03;;
56401;SDS011;42299;35.160;26.100;2022-11-04T06:05:45;7.05;;;2.50;;
56401;SDS011;42299;35.160;26.100;2022-11-04T06:07:07;5.53;;;3.25;;
56401;SDS011;42299;35.160;26.100;2022-11-04T06:08:31;6.00;;;3.17;;
56401;SDS011;42299;35.160;26.100;2022-11-04T06:09:53;4.38;;;2.80;;
56401;SDS011;42299;35.160;26.100;2022-11-04T06:11:16;9.43;;;2.90;;
56401;SDS011;42299;35.160;26.100;2022-11-04T06:12:40;7.32;;;3.28;;
56401;SDS011;42299;35.160;26.100;2022-11-04T06:14:02;9.38;;;3.13;;
56401;SDS011;42299;35.160;26.100;2022-11-04T06:15:25;12.63;;;2.75;;
56401;SDS011;42299;35.160;26.100;2022-11-04T06:16:46;7.68;;;3.00;;
56401;SDS011;42299;35.160;26.100;2022-11-04T06:18:09;9.32;;;2.83;;
56401;SDS011;42299;35.160;26.100;2022-11-04T06:19:31;11.57;;;3.53;;
56401;SDS011;42299;35.160;26.100;2022-11-04T06:21:05;7.45;;;3.20;;
56401;SDS011;42299;35.160;26.100;2022-11-04T06:22:27;8.40;;;2.50;;
56401;SDS011;42299;35.160;26.100;2022-11-04T06:23:50;7.40;;;2.58;;
56401;SDS011;42299;35.160;26.100;2022-11-04T06:25:13;8.68;;;2.30;;
56401;SDS011;42299;35.160;26.100;2022-11-04T06:26:36;8.55;;;1.98;;
56401;SDS011;42299;35.160;26.100;2022-11-04T06:27:59;7.50;;;2.08;;
56401;SDS011;42299;35.160;26.100;2022-11-04T06:29:21;8.77;;;2.55;;
56401;SDS011;42299;35.160;26.100;2022-11-04T06:30:43;7.57;;;2.42;;
56401;SDS011;42299;35.160;26.100;2022-11-04T06:32:06;9.32;;;2.13;;
56401;SDS011;42299;35.160;26.100;2022-11-04T06:33:29;4.35;;;1.90;;
56401;SDS011;42299;35.160;26.100;2022-11-04T06:34:52;5.45;;;1.80;;
56401;SDS011;42299;35.160;26.100;2022-11-04T06:36:15;3.33;;;1.77;;
56401;SDS011;42299;35.160;26.100;2022-11-04T06:37:38;5.55;;;1.88;;
56401;SDS011;42299;35.160;26.100;2022-11-04T06:39:01;6.40;;;1.90;;
56401;SDS011;42299;35.160;26.100;2022-11-04T06:40:24;5.15;;;1.80;;
56401;SDS011;42299;35.160;26.100;2022-11-04T06:41:47;4.15;;;1.63;;
56401;SDS011;42299;35.160;26.100;2022-11-04T06:43:10;6.10;;;1.70;;
56401;SDS011;42299;35.160;26.100;2022-11-04T06:44:32;4.22;;;1.67;;
56401;SDS011;42299;35.160;26.100;2022-11-04T06:45:56;5.63;;;1.92;;
56401;SDS011;42299;35.160;26.100;2022-11-04T06:47:19;7.22;;;1.80;;
56401;SDS011;42299;35.160;26.100;2022-11-04T06:48:42;3.38;;;1.50;;
56401;SDS011;42299;35.160;26.100;2022-11-04T06:50:07;5.45;;;1.50;;
56401;SDS011;42299;35.160;26.100;2022-11-04T06:51:31;2.88;;;1.40;;
56401;SDS011;42299;35.160;26.100;2022-11-04T06:52:54;4.15;;;1.70;;
56401;SDS011;42299;35.160;26.100;2022-11-04T06:54:17;4.57;;;1.75;;
56401;SDS011;42299;35.160;26.100;2022-11-04T06:55:39;3.55;;;1.48;;
56401;SDS011;42299;35.160;26.100;2022-11-04T06:57:02;3.53;;;1.67;;
56401;SDS011;42299;35.160;26.100;2022-11-04T06:58:25;5.03;;;1.50;;
56401;SDS011;42299;35.160;26.100;2022-11-04T06:59:46;5.05;;;1.70;;
56401;SDS011;42299;35.160;26.100;2022-11-04T07:01:08;7.00;;;1.58;;
56401;SDS011;42299;35.160;26.100;2022-11-04T07:02:31;3.72;;;1.63;;
56401;SDS011;42299;35.160;26.100;2022-11-04T07:03:54;4.72;;;1.75;;
56401;SDS011;42299;35.160;26.100;2022-11-04T07:05:19;2.80;;;1.33;;
56401;SDS011;42299;35.160;26.100;2022-11-04T07:06:42;2.70;;;1.17;;
56401;SDS011;42299;35.160;26.100;2022-11-04T07:08:05;4.22;;;2.08;;
56401;SDS011;42299;35.160;26.100;2022-11-04T07:09:28;4.38;;;2.00;;
56401;SDS011;42299;35.160;26.100;2022-11-04T07:10:50;7.32;;;1.80;;
56401;SDS011;42299;35.160;26.100;2022-11-04T07:12:16;6.97;;;1.90;;
56401;SDS011;42299;35.160;26.100;2022-11-04T07:13:38;7.35;;;1.70;;
56401;SDS011;42299;35.160;26.100;2022-11-04T07:15:01;5.43;;;2.00;;
56401;SDS011;42299;35.160;26.100;2022-11-04T07:16:24;7.78;;;2.55;;
56401;SDS011;42299;35.160;26.100;2022-11-04T07:17:46;5.50;;;1.92;;
56401;SDS011;42299;35.160;26.100;2022-11-04T07:19:08;5.22;;;2.70;;
56401;SDS011;42299;35.160;26.100;2022-11-04T07:20:33;8.65;;;3.40;;
56401;SDS011;42299;35.160;26.100;2022-11-04T07:21:56;4.20;;;1.83;;
56401;SDS011;42299;35.160;26.100;2022-11-04T07:23:19;14.13;;;2.10;;
56401;SDS011;42299;35.160;26.100;2022-11-04T07:24:41;8.60;;;2.67;;
56401;SDS011;42299;35.160;26.100;2022-11-04T07:26:05;8.45;;;3.22;;
56401;SDS011;42299;35.160;26.100;2022-11-04T07:27:29;6.38;;;2.10;;
56401;SDS011;42299;35.160;26.100;2022-11-04T07:28:51;7.65;;;2.50;;
56401;SDS011;42299;35.160;26.100;2022-11-04T07:30:14;6.05;;;2.28;;
56401;SDS011;42299;35.160;26.100;2022-11-04T07:31:36;6.90;;;3.08;;
56401;SDS011;42299;35.160;26.100;2022-11-04T07:32:58;8.45;;;3.00;;
56401;SDS011;42299;35.160;26.100;2022-11-04T07:34:20;6.78;;;3.00;;
56401;SDS011;42299;35.160;26.100;2022-11-04T07:35:44;11.05;;;3.33;;
56401;SDS011;42299;35.160;26.100;2022-11-04T07:37:06;9.15;;;2.85;;
56401;SDS011;42299;35.160;26.100;2022-11-04T07:38:29;4.60;;;2.47;;
56401;SDS011;42299;35.160;26.100;2022-11-04T07:39:51;6.30;;;2.67;;
56401;SDS011;42299;35.160;26.100;2022-11-04T07:41:14;6.30;;;2.80;;
56401;SDS011;42299;35.160;26.100;2022-11-04T07:42:37;11.73;;;4.35;;
56401;SDS011;42299;35.160;26.100;2022-11-04T07:44:01;10.43;;;4.22;;
56401;SDS011;42299;35.160;26.100;2022-11-04T07:45:25;10.77;;;4.60;;
56401;SDS011;42299;35.160;26.100;2022-11-04T07:46:47;16.35;;;5.35;;
56401;SDS011;42299;35.160;26.100;2022-11-04T07:48:10;9.73;;;4.30;;
56401;SDS011;42299;35.160;26.100;2022-11-04T07:49:32;9.38;;;4.10;;
56401;SDS011;42299;35.160;26.100;2022-11-04T07:50:57;7.13;;;2.55;;
56401;SDS011;42299;35.160;26.100;2022-11-04T07:52:20;9.18;;;3.20;;
56401;SDS011;42299;35.160;26.100;2022-11-04T07:53:43;12.07;;;3.45;;
56401;SDS011;42299;35.160;26.100;2022-11-04T07:55:06;10.52;;;3.53;;
56401;SDS011;42299;35.160;26.100;2022-11-04T07:56:29;7.68;;;2.60;;
56401;SDS011;42299;35.160;26.100;2022-11-04T07:57:53;5.95;;;2.92;;
56401;SDS011;42299;35.160;26.100;2022-11-04T07:59:14;11.32;;;2.85;;
56401;SDS011;42299;35.160;26.100;2022-11-04T08:00:37;9.38;;;2.90;;
56401;SDS011;42299;35.160;26.100;2022-11-04T08:01:59;7.75;;;2.90;;
56401;SDS011;42299;35.160;26.100;2022-11-04T08:03:22;10.18;;;2.92;;
56401;SDS011;42299;35.160;26.100;2022-11-04T08:04:44;7.63;;;3.03;;
56401;SDS011;42299;35.160;26.100;2022-11-04T08:06:09;8.70;;;2.80;;
56401;SDS011;42299;35.160;26.100;2022-11-04T08:07:33;13.00;;;2.92;;
56401;SDS011;42299;35.160;26.100;2022-11-04T08:08:56;9.15;;;2.65;;
56401;SDS011;42299;35.160;26.100;2022-11-04T08:10:19;13.38;;;3.88;;
56401;SDS011;42299;35.160;26.100;2022-11-04T08:11:41;14.43;;;3.10;;
56401;SDS011;42299;35.160;26.100;2022-11-04T08:13:04;9.32;;;3.67;;
56401;SDS011;42299;35.160;26.100;2022-11-04T08:14:26;7.43;;;3.33;;
56401;SDS011;42299;35.160;26.100;2022-11-04T08:15:48;9.85;;;3.13;;
56401;SDS011;42299;35.160;26.100;2022-11-04T08:17:11;14.13;;;5.03;;
56401;SDS011;42299;35.160;26.100;2022-11-04T08:18:34;11.25;;;3.60;;
56401;SDS011;42299;35.160;26.100;2022-11-04T08:19:57;11.32;;;3.60;;
56401;SDS011;42299;35.160;26.100;2022-11-04T08:21:21;13.73;;;4.05;;
56401;SDS011;42299;35.160;26.100;2022-11-04T08:22:43;7.72;;;3.38;;
56401;SDS011;42299;35.160;26.100;2022-11-04T08:24:06;6.53;;;3.20;;
56401;SDS011;42299;35.160;26.100;2022-11-04T08:25:28;9.50;;;3.85;;
56401;SDS011;42299;35.160;26.100;2022-11-04T08:26:51;12.15;;;3.42;;
56401;SDS011;42299;35.160;26.100;2022-11-04T08:28:13;8.50;;;3.33;;